Time;durP1;ratioP1;P1;durP2;ratioP2;P2;SDS_P1;SDS_P2;PMS_P1;PMS_P2;Temp;Humidity;BMP_temperature;BMP_pressure;BME280_temperature;BME280_humidity;BME280_pressure;Samples;Min_cycle;Max_cycle;Signal;HPM_P1;HPM_P2
2022/05/21 00:03:34;;;;;;;7.80;6.12;;;12.00;99.90;;;;;;7357235;32;20158;-62
2022/05/21 00:07:36;;;;;;;12.00;6.35;;;12.00;99.90;;;;;;7367022;32;20231;-61
2022/05/21 00:11:39;;;;;;;12.60;6.78;;;12.00;99.90;;;;;;7358180;32;20134;-61
2022/05/21 00:15:41;;;;;;;9.77;7.18;;;12.00;99.90;;;;;;7358681;32;20198;-61
2022/05/21 00:19:43;;;;;;;10.23;7.95;;;11.90;99.90;;;;;;7360057;32;20217;-62
2022/05/21 00:23:45;;;;;;;11.02;7.57;;;12.00;99.90;;;;;;7359759;32;20138;-61
2022/05/21 00:27:46;;;;;;;12.40;8.13;;;11.90;99.90;;;;;;7359155;32;20125;-61
2022/05/21 00:31:49;;;;;;;11.65;8.57;;;11.90;99.90;;;;;;7337543;32;20107;-61
2022/05/21 00:35:52;;;;;;;10.45;8.10;;;11.90;99.90;;;;;;7375557;32;20221;-60
2022/05/21 00:39:54;;;;;;;11.30;7.90;;;11.90;99.90;;;;;;7370115;32;20213;-61
2022/05/21 00:43:58;;;;;;;10.75;7.57;;;11.90;99.90;;;;;;7356542;32;20566;-60
2022/05/21 00:48:00;;;;;;;14.57;8.00;;;11.90;99.90;;;;;;7362199;32;20229;-61
2022/05/21 00:52:07;;;;;;;9.90;7.82;;;11.90;99.90;;;;;;7347678;32;20118;-62
2022/05/21 00:56:11;;;;;;;11.07;7.53;;;11.90;99.90;;;;;;7365026;32;20211;-60
2022/05/21 01:00:20;;;;;;;12.23;7.68;;;11.90;99.90;;;;;;7361787;32;20306;-60
2022/05/21 01:04:23;;;;;;;10.73;7.87;;;11.80;99.90;;;;;;7361149;32;20481;-60
2022/05/21 01:08:25;;;;;;;9.07;7.90;;;11.80;99.90;;;;;;7364318;32;20129;-60
2022/05/21 01:12:32;;;;;;;8.98;7.28;;;11.80;99.90;;;;;;7361953;32;20567;-60
2022/05/21 01:16:35;;;;;;;9.15;7.65;;;11.80;99.90;;;;;;7364923;32;20484;-60
2022/05/21 01:20:47;;;;;;;10.30;7.90;;;11.80;99.90;;;;;;7364972;32;20111;-60
2022/05/21 01:24:49;;;;;;;12.27;7.55;;;11.90;99.90;;;;;;7370831;32;20206;-60
2022/05/21 01:28:51;;;;;;;8.57;6.47;;;11.90;99.90;;;;;;7372145;32;20107;-61
2022/05/21 01:32:53;;;;;;;11.55;6.72;;;11.80;99.90;;;;;;7372210;32;20130;-60
2022/05/21 01:36:54;;;;;;;11.05;6.35;;;11.80;99.90;;;;;;7371412;32;20134;-61
2022/05/21 01:40:57;;;;;;;7.10;5.80;;;11.80;99.90;;;;;;7366730;32;20111;-61
2022/05/21 01:44:59;;;;;;;11.52;6.37;;;11.80;99.90;;;;;;7350848;32;20254;-61
2022/05/21 01:49:01;;;;;;;9.60;6.43;;;11.90;99.90;;;;;;7364490;32;20133;-60
2022/05/21 01:53:03;;;;;;;9.45;6.53;;;11.90;99.90;;;;;;7370423;32;20126;-60
2022/05/21 01:57:07;;;;;;;8.98;6.07;;;11.90;99.90;;;;;;7370253;32;20226;-61
2022/05/21 02:01:10;;;;;;;8.88;5.47;;;11.90;99.90;;;;;;7366919;32;20111;-60
2022/05/21 02:05:12;;;;;;;9.98;6.15;;;11.90;99.90;;;;;;7370158;32;20211;-61
2022/05/21 02:09:15;;;;;;;10.20;5.45;;;11.90;99.90;;;;;;7368483;32;20107;-62
2022/05/21 02:13:19;;;;;;;9.35;5.43;;;11.90;99.90;;;;;;7364096;32;20467;-61
2022/05/21 02:17:22;;;;;;;10.30;5.18;;;11.90;99.90;;;;;;7361103;32;20133;-63
2022/05/21 02:21:23;;;;;;;13.50;5.03;;;11.90;99.90;;;;;;7371822;32;20129;-62
2022/05/21 02:25:25;;;;;;;11.27;5.28;;;11.80;99.90;;;;;;7356980;32;20129;-61
2022/05/21 02:29:27;;;;;;;9.55;5.53;;;11.80;99.90;;;;;;7358727;32;20514;-61
2022/05/21 02:33:30;;;;;;;8.25;4.95;;;11.90;99.90;;;;;;7347184;32;20722;-61
2022/05/21 02:41:52;;;;;;;13.65;5.53;;;12.00;99.90;;;;;;7368223;32;20137;-60
2022/05/21 02:45:54;;;;;;;12.70;5.72;;;12.10;99.90;;;;;;7364051;32;20699;-61
2022/05/21 02:49:57;;;;;;;10.45;5.45;;;12.10;99.90;;;;;;7372413;32;20118;-62
2022/05/21 02:53:58;;;;;;;15.50;5.60;;;12.20;99.90;;;;;;7363860;32;20157;-62
2022/05/21 02:58:00;;;;;;;10.65;5.82;;;12.30;99.90;;;;;;7363027;32;20134;-61
2022/05/21 03:02:03;;;;;;;9.38;4.87;;;12.30;99.90;;;;;;7365997;32;20198;-62
2022/05/21 03:06:04;;;;;;;13.57;4.45;;;12.30;99.90;;;;;;7368213;32;20198;-62
2022/05/21 03:10:22;;;;;;;9.05;4.47;;;12.30;99.90;;;;;;7366659;32;20624;-62
2022/05/21 03:14:25;;;;;;;10.48;4.53;;;12.40;99.90;;;;;;7367197;32;20202;-63
2022/05/21 03:18:27;;;;;;;9.85;4.53;;;12.40;99.90;;;;;;7352473;32;20129;-62
2022/05/21 03:22:29;;;;;;;8.65;3.60;;;12.40;99.90;;;;;;7364800;32;20115;-62
2022/05/21 03:26:31;;;;;;;11.00;3.85;;;12.40;99.90;;;;;;7357613;32;20526;-62
2022/05/21 03:30:33;;;;;;;9.07;4.15;;;12.40;99.90;;;;;;7365158;32;20150;-62
2022/05/21 03:34:36;;;;;;;10.32;3.97;;;12.50;99.90;;;;;;7368261;32;20111;-61
2022/05/21 03:38:37;;;;;;;11.38;4.10;;;12.50;99.90;;;;;;7355072;32;20182;-62
2022/05/21 03:42:39;;;;;;;9.63;3.65;;;12.40;99.90;;;;;;7363035;32;20629;-62
2022/05/21 03:46:41;;;;;;;10.75;3.45;;;12.40;99.90;;;;;;7359143;32;20610;-63
2022/05/21 03:50:43;;;;;;;10.38;3.33;;;12.40;99.90;;;;;;7365866;32;20375;-62
2022/05/21 03:54:44;;;;;;;14.00;3.65;;;12.40;99.90;;;;;;7346628;32;20130;-63
2022/05/21 03:58:46;;;;;;;7.65;3.53;;;12.50;99.90;;;;;;7362349;32;20157;-62
2022/05/21 04:02:48;;;;;;;11.63;3.90;;;12.50;99.90;;;;;;7361939;32;20138;-62
2022/05/21 04:06:50;;;;;;;9.23;3.75;;;12.50;99.90;;;;;;7362738;32;20221;-62
2022/05/21 04:10:51;;;;;;;12.57;4.12;;;12.40;99.90;;;;;;7363643;32;20226;-62
2022/05/21 04:14:53;;;;;;;10.35;4.65;;;12.40;99.90;;;;;;7360994;32;20135;-62
2022/05/21 04:18:55;;;;;;;10.88;4.07;;;12.40;99.90;;;;;;7359158;32;20133;-62
2022/05/21 04:22:56;;;;;;;11.80;4.62;;;12.40;99.90;;;;;;7362625;32;20139;-62
2022/05/21 04:26:58;;;;;;;13.10;4.10;;;12.50;99.90;;;;;;7362925;32;20544;-62
2022/05/21 04:31:00;;;;;;;10.07;4.37;;;12.40;99.90;;;;;;7353410;32;20197;-63
2022/05/21 04:35:02;;;;;;;12.30;4.28;;;12.40;99.90;;;;;;7362960;32;20235;-62
2022/05/21 04:39:04;;;;;;;8.80;4.10;;;12.40;99.90;;;;;;7362660;32;20250;-63
2022/05/21 04:43:06;;;;;;;10.10;3.40;;;12.50;99.90;;;;;;7359181;32;20107;-62
2022/05/21 04:47:08;;;;;;;12.98;4.07;;;12.40;99.90;;;;;;7360580;32;20253;-62
2022/05/21 04:51:10;;;;;;;10.68;4.03;;;12.40;99.90;;;;;;7345950;32;20205;-59
2022/05/21 04:55:12;;;;;;;10.55;4.50;;;12.40;99.90;;;;;;7352457;32;20189;-60
2022/05/21 04:59:14;;;;;;;8.68;4.32;;;12.40;99.90;;;;;;7364932;32;20130;-64
2022/05/21 05:03:17;;;;;;;11.82;4.43;;;12.50;99.90;;;;;;7364756;32;20142;-63
2022/05/21 05:07:19;;;;;;;13.95;5.03;;;12.50;99.90;;;;;;7365271;32;20237;-62
2022/05/21 05:11:20;;;;;;;10.98;4.57;;;12.50;99.90;;;;;;7364681;32;20474;-63
2022/05/21 05:15:22;;;;;;;11.15;3.92;;;12.50;99.90;;;;;;7366126;32;20118;-62
2022/05/21 05:19:24;;;;;;;11.95;4.70;;;12.60;99.90;;;;;;7363848;32;20367;-63
2022/05/21 05:23:26;;;;;;;8.15;4.15;;;12.60;99.90;;;;;;7349673;32;20111;-62
2022/05/21 05:27:28;;;;;;;12.50;4.90;;;12.70;99.90;;;;;;7342747;32;20139;-62
2022/05/21 05:31:29;;;;;;;14.23;4.65;;;12.70;99.90;;;;;;7358230;32;20681;-64
2022/05/21 05:35:31;;;;;;;11.38;4.57;;;12.90;99.90;;;;;;7344739;32;20110;-62
2022/05/21 05:39:33;;;;;;;16.92;5.30;;;12.90;99.90;;;;;;7355020;32;20237;-62
2022/05/21 05:43:35;;;;;;;12.13;5.22;;;13.00;99.90;;;;;;7363346;32;20646;-62
2022/05/21 05:47:36;;;;;;;15.02;5.53;;;13.10;99.90;;;;;;7348239;32;20121;-62
2022/05/21 05:51:38;;;;;;;10.52;4.97;;;13.10;99.90;;;;;;7356544;32;20734;-62
2022/05/21 05:55:41;;;;;;;13.23;5.30;;;13.20;99.90;;;;;;7358916;32;20286;-65
2022/05/21 05:59:50;;;;;;;17.98;5.28;;;13.30;99.90;;;;;;7345679;32;20106;-62
2022/05/21 06:03:52;;;;;;;14.23;5.20;;;13.30;99.90;;;;;;7254885;32;20136;-68
2022/05/21 06:08:00;;;;;;;12.00;5.10;;;13.30;99.90;;;;;;7230857;32;20140;-68
2022/05/21 06:12:02;;;;;;;10.15;4.62;;;13.30;99.90;;;;;;7292842;32;20144;-67
2022/05/21 06:16:04;;;;;;;12.23;4.45;;;13.20;99.90;;;;;;7238992;32;20496;-67
2022/05/21 06:20:09;;;;;;;10.88;4.07;;;13.30;99.90;;;;;;7237904;32;20105;-66
2022/05/21 06:24:10;;;;;;;9.43;4.57;;;13.20;99.90;;;;;;7239332;32;20613;-66
2022/05/21 06:28:12;;;;;;;10.93;4.68;;;13.30;99.90;;;;;;7238744;32;20131;-66
2022/05/21 06:32:14;;;;;;;11.15;4.70;;;13.30;99.90;;;;;;7234916;32;20112;-68
2022/05/21 06:36:16;;;;;;;15.02;5.22;;;13.30;99.90;;;;;;7233825;32;20117;-67
2022/05/21 06:40:18;;;;;;;15.02;4.90;;;13.30;99.90;;;;;;7293643;32;20353;-66
2022/05/21 06:44:20;;;;;;;16.52;5.47;;;13.40;99.90;;;;;;7237820;32;20270;-66
2022/05/21 06:48:22;;;;;;;10.82;4.95;;;13.40;99.90;;;;;;7237332;32;20230;-66
2022/05/21 06:52:24;;;;;;;12.73;6.00;;;13.40;99.90;;;;;;7231796;32;20159;-65
2022/05/21 06:56:26;;;;;;;9.85;4.97;;;13.40;99.90;;;;;;7232483;32;20123;-65
2022/05/21 07:00:28;;;;;;;12.50;5.47;;;13.50;99.90;;;;;;7294753;32;20235;-64
2022/05/21 07:08:50;;;;;;;18.92;6.68;;;13.40;99.90;;;;;;7357582;32;20126;-66
2022/05/21 07:12:52;;;;;;;13.65;6.05;;;13.40;99.90;;;;;;7361058;32;20139;-68
2022/05/21 07:16:53;;;;;;;19.27;6.60;;;13.50;99.90;;;;;;7343018;32;20526;-66
2022/05/21 07:20:56;;;;;;;12.75;5.85;;;13.50;99.90;;;;;;7363360;32;20161;-67
2022/05/21 07:24:58;;;;;;;15.85;6.47;;;13.50;99.90;;;;;;7351204;32;20131;-68
2022/05/21 07:28:59;;;;;;;11.05;6.28;;;13.50;99.90;;;;;;7361104;32;20165;-64
2022/05/21 07:33:01;;;;;;;13.85;6.72;;;13.50;99.90;;;;;;7361154;32;20106;-65
2022/05/21 07:37:03;;;;;;;15.93;6.90;;;13.40;99.90;;;;;;7365656;32;20132;-65
2022/05/21 07:41:06;;;;;;;16.05;6.82;;;13.40;99.90;;;;;;7360036;32;20111;-65
2022/05/21 07:45:10;;;;;;;16.15;6.78;;;13.40;99.90;;;;;;7356728;32;20166;-66
2022/05/21 07:49:12;;;;;;;17.65;7.05;;;13.40;99.90;;;;;;7363978;32;20242;-66
2022/05/21 07:53:35;;;;;;;15.25;6.35;;;13.30;99.90;;;;;;7346105;32;20125;-66
2022/05/21 07:57:37;;;;;;;18.87;7.82;;;13.40;99.90;;;;;;7350733;32;20107;-66
2022/05/21 08:01:39;;;;;;;15.20;6.25;;;13.40;99.90;;;;;;7355693;32;20216;-66
2022/05/21 08:05:42;;;;;;;13.93;6.93;;;13.30;99.90;;;;;;7341371;32;20206;-65
2022/05/21 08:09:45;;;;;;;17.35;7.62;;;13.40;99.90;;;;;;7361987;32;20256;-66
2022/05/21 08:13:47;;;;;;;16.95;8.10;;;13.40;99.90;;;;;;7341200;32;20099;-66
2022/05/21 08:17:48;;;;;;;19.67;7.62;;;13.40;99.90;;;;;;7359220;32;20138;-65
2022/05/21 08:21:50;;;;;;;15.20;6.85;;;13.50;99.90;;;;;;7356061;32;20218;-63
2022/05/21 08:30:12;;;;;;;19.73;7.35;;;13.60;99.90;;;;;;7344865;32;20510;-60
2022/05/21 08:34:14;;;;;;;15.82;7.18;;;13.70;99.90;;;;;;7368085;32;20221;-60
2022/05/21 08:38:16;;;;;;;13.55;6.70;;;13.90;99.90;;;;;;7364630;32;20431;-64
2022/05/21 08:42:29;;;;;;;17.73;6.93;;;14.10;99.90;;;;;;7352880;32;20141;-60
2022/05/21 08:46:43;;;;;;;12.85;5.93;;;14.30;99.90;;;;;;7348034;32;20119;-62
2022/05/21 08:50:49;;;;;;;15.70;5.93;;;15.40;99.90;;;;;;7361884;32;20114;-65
2022/05/21 08:54:54;;;;;;;17.55;5.60;;;16.80;99.90;;;;;;7363328;32;20629;-60
2022/05/21 08:59:03;;;;;;;13.43;4.95;;;16.90;99.90;;;;;;7366977;32;20134;-64
2022/05/21 09:03:11;;;;;;;12.90;5.45;;;16.60;99.90;;;;;;7281599;32;20133;-59
2022/05/21 09:07:27;;;;;;;12.18;5.45;;;16.40;99.90;;;;;;7228384;32;20128;-67
2022/05/21 09:11:48;;;;;;;15.38;6.28;;;16.00;99.90;;;;;;7257405;32;20155;-66
2022/05/21 09:20:18;;;;;;;16.62;6.03;;;15.40;99.90;;;;;;7212723;32;20925;-64
2022/05/21 09:24:45;;;;;;;13.18;5.32;;;15.30;99.90;;;;;;7210499;32;20117;-65
2022/05/21 09:28:48;;;;;;;12.88;5.15;;;15.20;99.90;;;;;;7240785;32;20130;-66
2022/05/21 09:32:56;;;;;;;12.35;5.47;;;15.30;99.90;;;;;;7265521;32;20135;-65
2022/05/21 09:37:00;;;;;;;14.85;5.68;;;15.10;99.90;;;;;;7239867;32;20188;-66
2022/05/21 09:41:11;;;;;;;18.58;4.78;;;15.30;99.90;;;;;;7188318;32;20439;-65
2022/05/21 09:45:22;;;;;;;13.62;4.47;;;15.70;99.90;;;;;;7227349;32;20121;-67
2022/05/21 09:49:31;;;;;;;10.77;4.50;;;15.80;99.90;;;;;;7259947;32;20212;-66
2022/05/21 09:53:40;;;;;;;11.85;4.15;;;15.80;99.90;;;;;;7284726;32;20637;-67
2022/05/21 09:57:44;;;;;;;14.40;4.05;;;15.50;99.90;;;;;;7264371;32;20108;-67
2022/05/21 10:01:49;;;;;;;14.52;4.62;;;15.60;99.90;;;;;;7293538;32;20133;-66
2022/05/21 10:05:52;;;;;;;9.70;4.37;;;15.60;99.90;;;;;;7367174;32;20261;-67
2022/05/21 10:14:23;;;;;;;12.07;4.00;;;16.00;99.90;;;;;;7364630;32;20125;-68
2022/05/21 10:18:40;;;;;;;17.42;4.47;;;16.10;99.90;;;;;;7372130;32;20134;-67
2022/05/21 10:22:57;;;;;;;12.27;4.60;;;16.20;99.90;;;;;;7347910;32;20111;-67
2022/05/21 10:27:19;;;;;;;11.68;4.43;;;16.60;99.90;;;;;;7357503;32;20182;-69
2022/05/21 10:31:33;;;;;;;10.50;4.03;;;17.40;99.90;;;;;;7358691;32;20222;-65
2022/05/21 10:35:58;;;;;;;12.88;3.85;;;18.20;99.90;;;;;;7361199;32;20175;-66
2022/05/21 10:40:15;;;;;;;14.00;3.72;;;19.10;99.90;;;;;;7363266;32;20133;-65
2022/05/21 10:44:20;;;;;;;8.88;3.58;;;19.50;99.90;;;;;;7360064;32;20779;-65
2022/05/21 10:48:50;;;;;;;10.10;4.15;;;19.80;99.90;;;;;;7359276;32;20107;-65
2022/05/21 10:53:25;;;;;;;11.77;4.12;;;19.60;99.90;;;;;;7354521;32;20157;-65
2022/05/21 10:57:36;;;;;;;10.82;3.42;;;19.20;99.90;;;;;;7367716;32;20133;-64
2022/05/21 11:01:50;;;;;;;10.68;3.60;;;18.80;99.90;;;;;;7367109;32;20135;-65
2022/05/21 11:06:16;;;;;;;10.25;4.05;;;18.50;99.90;;;;;;7362425;32;20158;-65
2022/05/21 11:10:25;;;;;;;12.37;3.83;;;18.00;99.90;;;;;;7362995;32;20253;-66
2022/05/21 11:14:33;;;;;;;12.60;3.95;;;18.00;99.90;;;;;;7365307;32;20131;-67
2022/05/21 11:18:53;;;;;;;9.23;3.28;;;18.20;99.90;;;;;;7363275;32;20186;-65
2022/05/21 11:23:06;;;;;;;7.25;3.42;;;18.70;99.90;;;;;;7354531;32;20106;-67
2022/05/21 11:27:34;;;;;;;11.35;3.53;;;19.10;99.90;;;;;;7361290;32;20134;-66
2022/05/21 11:41:25;;;;;;;9.10;3.20;;;19.00;99.90;;;;;;7358183;32;20201;-64
2022/05/21 11:45:27;;;;;;;9.30;3.75;;;19.40;99.90;;;;;;7362766;32;20294;-63
2022/05/21 11:49:53;;;;;;;11.32;3.70;;;19.60;99.90;;;;;;7338734;32;20126;-64
2022/05/21 11:53:54;;;;;;;12.73;3.17;;;19.60;99.90;;;;;;7364334;32;20254;-64
2022/05/21 11:58:04;;;;;;;14.38;3.72;;;19.50;99.90;;;;;;7350735;32;20122;-65
2022/05/21 12:02:17;;;;;;;8.90;3.15;;;19.80;99.90;;;;;;7362031;32;20127;-64
2022/05/21 12:06:29;;;;;;;7.93;3.47;;;20.30;99.90;;;;;;7359676;32;20121;-65
2022/05/21 12:10:53;;;;;;;7.20;3.15;;;19.90;99.90;;;;;;7364106;32;20198;-64
2022/05/21 12:15:08;;;;;;;10.07;3.22;;;19.40;99.90;;;;;;7362556;32;20153;-65
2022/05/21 12:19:10;;;;;;;9.38;3.47;;;19.20;99.90;;;;;;7353743;32;20103;-65
2022/05/21 12:23:32;;;;;;;6.90;3.10;;;18.80;99.90;;;;;;7361413;32;20216;-66
2022/05/21 12:27:49;;;;;;;7.93;2.97;;;18.80;99.90;;;;;;7352110;32;20144;-65
2022/05/21 12:31:53;;;;;;;11.40;3.45;;;18.60;99.90;;;;;;7364745;32;20343;-67
2022/05/21 12:36:12;;;;;;;12.88;3.50;;;18.50;99.90;;;;;;7360585;32;20115;-64
2022/05/21 12:40:29;;;;;;;8.02;2.83;;;18.60;99.90;;;;;;7360767;32;20110;-65
2022/05/21 12:44:47;;;;;;;11.20;3.40;;;18.70;99.90;;;;;;7328116;32;20554;-63
2022/05/21 12:48:50;;;;;;;7.95;3.08;;;18.90;99.90;;;;;;7355600;32;20180;-67
2022/05/21 12:52:55;;;;;;;13.68;3.60;;;19.00;99.90;;;;;;7367874;32;20107;-67
2022/05/21 12:57:09;;;;;;;5.30;2.70;;;19.00;99.90;;;;;;7352849;32;20435;-68
2022/05/21 13:01:23;;;;;;;9.15;3.33;;;18.90;99.90;;;;;;7358117;32;20239;-67
2022/05/21 13:05:32;;;;;;;10.20;3.67;;;19.50;99.90;;;;;;7361157;32;20137;-67
2022/05/21 13:09:38;;;;;;;11.32;3.35;;;19.10;99.90;;;;;;7364669;32;20834;-67
2022/05/21 13:13:42;;;;;;;9.70;3.30;;;18.90;99.90;;;;;;7359438;32;20122;-67
2022/05/21 13:18:07;;;;;;;10.30;3.17;;;18.60;99.90;;;;;;7371761;32;20585;-69
2022/05/21 13:22:18;;;;;;;8.07;3.03;;;18.30;99.90;;;;;;7346353;32;20119;-67
2022/05/21 13:26:25;;;;;;;7.75;2.87;;;18.30;99.90;;;;;;7368414;32;20122;-67
2022/05/21 13:30:35;;;;;;;9.90;2.78;;;18.30;99.90;;;;;;7349858;32;20222;-66
2022/05/21 13:34:37;;;;;;;9.98;2.78;;;18.30;99.90;;;;;;7360127;32;20103;-67
2022/05/21 13:38:43;;;;;;;13.45;3.40;;;18.40;99.90;;;;;;7354227;32;20229;-67
2022/05/21 13:42:47;;;;;;;10.68;3.08;;;18.50;99.90;;;;;;7370430;32;20137;-68
2022/05/21 13:46:55;;;;;;;8.80;2.72;;;18.60;99.90;;;;;;7359270;32;20560;-68
2022/05/21 13:50:57;;;;;;;13.05;4.05;;;18.80;99.90;;;;;;7368840;32;20118;-68
2022/05/21 13:54:59;;;;;;;14.27;3.47;;;18.80;99.90;;;;;;7363203;32;20174;-67
2022/05/21 13:59:19;;;;;;;7.22;2.67;;;18.70;99.90;;;;;;7352242;32;20309;-67
2022/05/21 14:03:29;;;;;;;9.77;3.70;;;18.70;99.90;;;;;;7368515;32;20348;-68
2022/05/21 14:07:33;;;;;;;10.77;3.10;;;18.80;99.90;;;;;;7346976;32;20553;-67
2022/05/21 14:11:36;;;;;;;10.82;3.10;;;18.80;99.90;;;;;;7361964;32;20137;-68
2022/05/21 14:15:45;;;;;;;9.65;3.10;;;18.80;99.90;;;;;;7362187;32;20706;-67
2022/05/21 14:20:12;;;;;;;8.57;2.87;;;18.70;99.90;;;;;;7363935;32;20300;-67
2022/05/21 14:24:17;;;;;;;9.73;3.40;;;18.70;99.90;;;;;;7365519;32;20130;-67
2022/05/21 14:28:23;;;;;;;9.18;2.85;;;18.70;99.90;;;;;;7360668;32;20293;-66
2022/05/21 14:32:30;;;;;;;7.18;2.80;;;18.70;99.90;;;;;;7346286;32;20155;-67
2022/05/21 14:36:37;;;;;;;5.87;3.08;;;18.90;99.90;;;;;;7367157;32;20210;-69
2022/05/21 14:41:02;;;;;;;9.10;3.10;;;19.00;99.90;;;;;;7368653;32;20490;-68
2022/05/21 14:45:21;;;;;;;8.23;2.85;;;19.00;99.90;;;;;;7364346;32;20522;-68
2022/05/21 14:49:23;;;;;;;9.05;3.67;;;19.10;99.90;;;;;;7364692;32;20141;-66
2022/05/21 14:53:27;;;;;;;8.85;3.10;;;19.00;99.90;;;;;;7359863;32;20565;-67
2022/05/21 14:57:28;;;;;;;9.18;3.83;;;19.20;99.90;;;;;;7355659;32;20503;-67
2022/05/21 15:01:30;;;;;;;10.75;3.15;;;19.10;99.90;;;;;;7350174;32;20138;-66
2022/05/21 15:05:35;;;;;;;11.23;3.53;;;19.20;99.90;;;;;;7349447;32;20277;-66
2022/05/21 15:09:39;;;;;;;8.35;3.15;;;19.20;99.90;;;;;;7357812;32;20234;-66
2022/05/21 15:13:40;;;;;;;7.75;3.08;;;19.20;99.90;;;;;;7359154;32;20550;-66
2022/05/21 15:17:43;;;;;;;8.07;3.22;;;19.40;99.90;;;;;;7361737;32;20252;-67
2022/05/21 15:21:46;;;;;;;10.88;3.83;;;19.30;99.90;;;;;;7361844;32;20165;-67
2022/05/21 15:25:47;;;;;;;10.77;3.60;;;19.20;99.90;;;;;;7354835;32;20107;-66
2022/05/21 15:29:49;;;;;;;6.03;3.30;;;19.10;99.90;;;;;;7360195;32;20106;-66
2022/05/21 15:33:52;;;;;;;8.18;3.53;;;19.00;99.90;;;;;;7342683;32;20233;-68
2022/05/21 15:37:54;;;;;;;8.60;4.72;;;18.90;99.90;;;;;;7348398;32;20328;-66
2022/05/21 15:41:57;;;;;;;13.82;4.18;;;18.80;99.90;;;;;;7350297;32;20119;-68
2022/05/21 15:45:58;;;;;;;9.20;4.12;;;18.90;99.90;;;;;;7359980;32;20644;-67
2022/05/21 15:50:00;;;;;;;10.32;4.37;;;19.00;99.90;;;;;;7350486;32;20211;-67
2022/05/21 15:54:02;;;;;;;9.27;4.37;;;18.90;99.90;;;;;;7357716;32;20122;-67
2022/05/21 15:58:05;;;;;;;12.18;4.85;;;18.90;99.90;;;;;;7360385;32;20130;-67
2022/05/21 16:02:15;;;;;;;10.43;4.00;;;19.00;99.90;;;;;;7364246;32;20175;-66
2022/05/21 16:06:18;;;;;;;8.88;3.90;;;19.00;99.90;;;;;;7346092;32;20167;-66
2022/05/21 16:10:20;;;;;;;7.78;3.55;;;18.90;99.90;;;;;;7349300;32;20178;-65
2022/05/21 16:14:22;;;;;;;13.10;3.78;;;18.90;99.90;;;;;;7368404;32;20282;-66
2022/05/21 16:18:24;;;;;;;6.93;3.50;;;19.00;99.90;;;;;;7350323;32;20111;-67
2022/05/21 16:22:27;;;;;;;13.88;3.72;;;18.90;99.90;;;;;;7350282;32;20115;-66
2022/05/21 16:30:50;;;;;;;9.85;3.50;;;18.80;99.90;;;;;;7360586;32;20617;-66
2022/05/21 16:34:53;;;;;;;7.95;3.65;;;18.90;99.90;;;;;;7361836;32;20125;-66
2022/05/21 16:38:55;;;;;;;10.27;4.50;;;18.80;99.90;;;;;;7355924;32;20640;-67
2022/05/21 16:42:57;;;;;;;8.82;3.67;;;18.90;99.90;;;;;;7365269;32;20111;-65
2022/05/21 16:47:00;;;;;;;8.98;4.43;;;18.90;99.90;;;;;;7361534;32;20129;-66
2022/05/21 16:51:03;;;;;;;14.90;4.57;;;18.70;99.90;;;;;;7351451;32;20622;-66
2022/05/21 16:55:06;;;;;;;7.30;3.97;;;18.60;99.90;;;;;;7353344;32;20111;-67
2022/05/21 16:59:08;;;;;;;7.20;3.55;;;18.50;99.90;;;;;;7352347;32;20141;-66
2022/05/21 17:03:12;;;;;;;12.27;3.50;;;18.40;99.90;;;;;;7356666;32;20456;-68
2022/05/21 17:07:15;;;;;;;13.55;4.57;;;18.40;99.90;;;;;;7361988;32;20137;-66
2022/05/21 17:11:17;;;;;;;9.10;3.70;;;18.40;99.90;;;;;;7371414;32;20114;-65
2022/05/21 17:15:19;;;;;;;9.23;3.47;;;18.60;99.90;;;;;;7364519;32;20130;-65
2022/05/21 17:19:21;;;;;;;10.02;3.83;;;18.50;99.90;;;;;;7357600;32;20557;-66
2022/05/21 17:23:23;;;;;;;11.88;3.53;;;18.70;99.90;;;;;;7362651;32;20447;-67
2022/05/21 17:31:45;;;;;;;10.27;3.28;;;18.50;99.90;;;;;;7362150;32;20177;-65
2022/05/21 17:35:50;;;;;;;7.18;3.10;;;18.30;99.90;;;;;;7355665;32;20198;-66
2022/05/21 17:39:52;;;;;;;8.35;3.40;;;18.10;99.90;;;;;;7370323;32;20229;-66
2022/05/21 17:43:53;;;;;;;6.68;2.65;;;18.00;99.90;;;;;;7363194;32;20107;-66
2022/05/21 17:47:55;;;;;;;6.40;2.78;;;18.00;99.90;;;;;;7362663;32;20186;-67
2022/05/21 17:51:57;;;;;;;6.55;2.75;;;18.00;99.90;;;;;;7361693;32;20545;-65
2022/05/21 17:55:59;;;;;;;8.18;2.97;;;17.80;99.90;;;;;;7356005;32;20265;-66
2022/05/21 18:00:01;;;;;;;5.95;2.60;;;17.70;99.90;;;;;;7365267;32;20150;-66
2022/05/21 18:04:03;;;;;;;10.27;3.12;;;17.60;99.90;;;;;;7244549;32;20109;-66
2022/05/21 18:08:06;;;;;;;8.20;3.42;;;17.50;99.90;;;;;;7238959;32;20147;-66
2022/05/21 18:12:09;;;;;;;9.07;3.92;;;17.40;99.90;;;;;;7236813;32;20109;-66
2022/05/21 18:20:31;;;;;;;6.95;3.47;;;17.30;99.90;;;;;;7234043;32;20588;-66
2022/05/21 18:24:33;;;;;;;8.45;3.80;;;17.20;99.90;;;;;;7235701;32;20112;-65
2022/05/21 18:28:35;;;;;;;7.55;3.40;;;17.10;99.90;;;;;;7236617;32;20710;-71
2022/05/21 18:32:37;;;;;;;7.40;3.67;;;16.90;99.90;;;;;;7289829;32;20585;-68
2022/05/21 18:36:40;;;;;;;10.93;3.62;;;16.90;99.90;;;;;;7237180;32;20151;-67
2022/05/21 18:40:42;;;;;;;10.73;4.32;;;16.70;99.90;;;;;;7237265;32;20992;-68
2022/05/21 18:44:45;;;;;;;8.77;4.30;;;16.60;99.90;;;;;;7235799;32;20131;-66
2022/05/21 18:48:47;;;;;;;9.68;4.80;;;16.50;99.90;;;;;;7289385;32;20135;-70
2022/05/21 18:52:49;;;;;;;12.50;4.55;;;16.40;99.90;;;;;;7233690;32;20311;-67
2022/05/21 18:56:50;;;;;;;9.57;4.57;;;16.30;99.90;;;;;;7231594;32;20117;-69
2022/05/21 19:00:52;;;;;;;8.00;4.80;;;16.20;99.90;;;;;;7240202;32;20283;-66
2022/05/21 19:04:57;;;;;;;8.80;4.82;;;16.10;99.90;;;;;;7360727;32;20270;-69
2022/05/21 19:08:58;;;;;;;12.50;5.22;;;16.00;99.90;;;;;;7358742;32;20264;-69
2022/05/21 19:13:01;;;;;;;13.50;5.55;;;15.80;99.90;;;;;;7364352;32;20135;-68
2022/05/21 19:17:03;;;;;;;11.98;5.05;;;15.70;99.90;;;;;;7363634;32;20372;-69
2022/05/21 19:21:05;;;;;;;7.85;5.45;;;15.50;99.90;;;;;;7344832;32;20111;-68
2022/05/21 19:25:12;;;;;;;9.85;5.75;;;15.40;99.90;;;;;;7364075;32;20621;-68
2022/05/21 19:29:15;;;;;;;12.20;5.78;;;15.40;99.90;;;;;;7363566;32;20726;-67
2022/05/21 19:33:17;;;;;;;10.70;5.20;;;15.30;99.90;;;;;;7351847;32;20424;-67
2022/05/21 19:37:18;;;;;;;10.10;5.32;;;15.20;99.90;;;;;;7354977;32;20125;-63
2022/05/21 19:41:20;;;;;;;9.10;5.87;;;15.10;99.90;;;;;;7355618;32;20129;-68
2022/05/21 19:45:22;;;;;;;10.73;6.32;;;14.90;99.90;;;;;;7366588;32;20202;-66
2022/05/21 19:49:24;;;;;;;9.43;5.80;;;14.80;99.90;;;;;;7367165;32;20126;-67
2022/05/21 19:53:26;;;;;;;11.98;5.80;;;14.60;99.90;;;;;;7358988;32;20107;-63
2022/05/21 19:57:44;;;;;;;11.23;6.78;;;14.50;99.90;;;;;;7366756;32;20463;-65
2022/05/21 20:01:46;;;;;;;10.93;6.43;;;14.40;99.90;;;;;;7356008;32;20138;-65
2022/05/21 20:05:48;;;;;;;12.02;6.43;;;14.20;99.90;;;;;;7361487;32;20126;-66
2022/05/21 20:09:49;;;;;;;13.90;6.62;;;14.10;99.90;;;;;;7348506;32;20111;-67
2022/05/21 20:13:56;;;;;;;10.15;6.97;;;13.80;99.90;;;;;;7365823;32;20107;-65
2022/05/21 20:17:58;;;;;;;13.90;6.85;;;13.70;99.90;;;;;;7355737;32;20512;-65
2022/05/21 20:22:20;;;;;;;12.73;6.85;;;13.50;99.90;;;;;;7361029;32;20231;-66
2022/05/21 20:26:22;;;;;;;9.70;7.10;;;13.30;99.90;;;;;;7357104;32;20129;-66
2022/05/21 20:30:24;;;;;;;13.20;6.95;;;13.20;99.90;;;;;;7354652;32;20933;-66
2022/05/21 20:34:25;;;;;;;11.80;7.75;;;13.10;99.90;;;;;;7350309;32;20462;-64
2022/05/21 20:38:28;;;;;;;14.23;8.00;;;13.00;99.90;;;;;;7358147;32;20236;-65
2022/05/21 20:42:31;;;;;;;14.80;7.95;;;12.80;99.90;;;;;;7360706;32;20126;-67
2022/05/21 20:46:33;;;;;;;8.68;6.78;;;12.70;99.90;;;;;;7364658;32;20251;-65
2022/05/21 20:50:35;;;;;;;13.23;7.60;;;12.50;99.90;;;;;;7355099;32;20170;-66
2022/05/21 20:54:38;;;;;;;12.45;7.12;;;12.40;99.90;;;;;;7340261;32;20099;-66
2022/05/21 20:58:40;;;;;;;10.95;7.68;;;12.40;99.90;;;;;;7360300;32;20115;-67
2022/05/21 21:02:42;;;;;;;15.75;7.85;;;12.30;99.90;;;;;;7354570;32;20222;-65
2022/05/21 21:06:43;;;;;;;10.35;7.40;;;12.20;99.90;;;;;;7358722;32;20217;-66
2022/05/21 21:10:46;;;;;;;14.98;8.32;;;12.10;99.90;;;;;;7358742;32;20132;-65
2022/05/21 21:14:48;;;;;;;15.02;8.25;;;12.10;99.90;;;;;;7364632;32;20190;-66
2022/05/21 21:18:50;;;;;;;14.87;7.75;;;12.00;99.90;;;;;;7359919;32;20107;-66
2022/05/21 21:22:52;;;;;;;13.55;8.20;;;11.90;99.90;;;;;;7350715;32;20119;-66
2022/05/21 21:26:54;;;;;;;11.23;8.10;;;11.80;99.90;;;;;;7363926;32;20528;-66
2022/05/21 21:30:56;;;;;;;12.88;7.87;;;11.70;99.90;;;;;;7364346;32;20107;-65
2022/05/21 21:34:58;;;;;;;13.02;7.97;;;11.60;99.90;;;;;;7360201;32;20601;-66
2022/05/21 21:39:02;;;;;;;14.00;7.97;;;11.60;99.90;;;;;;7370012;32;20206;-67
2022/05/21 21:43:04;;;;;;;11.68;7.10;;;11.60;99.90;;;;;;7368619;32;20161;-65
2022/05/21 21:47:08;;;;;;;11.27;7.43;;;11.50;99.90;;;;;;7366259;32;20777;-64
2022/05/21 21:51:10;;;;;;;14.57;7.95;;;11.40;99.90;;;;;;7369029;32;20528;-67